createdAt,value
2018-01-26T00:00:37.956Z,67.51
2018-01-26T00:03:09.071Z,67.60
2018-01-26T00:05:40.177Z,67.65
2018-01-26T00:08:11.298Z,67.52
2018-01-26T00:10:42.336Z,67.49
2018-01-26T00:13:13.579Z,67.47
2018-01-26T00:15:44.627Z,67.46
2018-01-26T00:18:15.726Z,67.47
2018-01-26T00:20:46.791Z,67.77
2018-01-26T00:23:17.915Z,67.69
2018-01-26T00:25:48.985Z,67.79
2018-01-26T00:28:20.080Z,67.84
2018-01-26T00:30:51.149Z,67.66
2018-01-26T00:33:22.272Z,67.76
2018-01-26T00:35:53.329Z,68.14
2018-01-26T00:38:24.474Z,68.21
2018-01-26T00:40:55.562Z,68.45
2018-01-26T00:43:26.707Z,68.91
2018-01-26T00:45:57.838Z,68.83
2018-01-26T00:48:28.921Z,68.65
2018-01-26T00:51:00.074Z,68.78
2018-01-26T00:53:31.131Z,68.75
2018-01-26T00:56:02.260Z,69.14
2018-01-26T00:58:33.507Z,69.08
2018-01-26T01:01:04.583Z,69.03
2018-01-26T01:03:42.689Z,68.97
2018-01-26T01:06:13.764Z,68.81
2018-01-26T01:08:44.923Z,68.75
2018-01-26T01:11:15.981Z,68.63
2018-01-26T01:13:47.092Z,68.44
2018-01-26T01:16:18.155Z,68.32
2018-01-26T01:18:49.251Z,68.30
2018-01-26T01:21:20.366Z,68.32
2018-01-26T01:23:51.472Z,68.56
2018-01-26T01:26:22.523Z,68.77
2018-01-26T01:28:53.723Z,68.84
2018-01-26T01:31:24.816Z,68.72
2018-01-26T01:33:55.951Z,69.04
2018-01-26T01:36:27.777Z,68.99
2018-01-26T01:38:58.878Z,69.46
2018-01-26T01:41:30.941Z,69.66
2018-01-26T01:44:02.086Z,69.98
2018-01-26T01:46:33.137Z,70.40
2018-01-26T01:49:15.396Z,70.38
2018-01-26T01:51:46.533Z,70.71
2018-01-26T01:54:17.664Z,71.17
2018-01-26T01:56:48.756Z,70.92
2018-01-26T01:59:19.907Z,71.12
2018-01-26T02:01:50.991Z,71.30
2018-01-26T02:04:22.115Z,71.07
2018-01-26T02:06:53.167Z,70.85
2018-01-26T02:09:24.355Z,70.59
2018-01-26T02:11:55.434Z,70.48
2018-01-26T02:14:26.571Z,70.48
2018-01-26T02:16:57.590Z,70.48
2018-01-26T02:19:28.716Z,70.46
2018-01-26T02:21:59.823Z,70.55
2018-01-26T02:24:30.868Z,70.50
2018-01-26T02:27:02.012Z,70.99
2018-01-26T02:29:33.056Z,71.02
2018-01-26T02:32:04.164Z,70.91
2018-01-26T02:34:35.408Z,70.94
2018-01-26T02:37:06.472Z,70.88
2018-01-26T02:39:37.516Z,70.81
2018-01-26T02:42:08.611Z,70.63
2018-01-26T02:44:39.713Z,70.44
2018-01-26T02:47:10.804Z,70.72
2018-01-26T02:49:41.924Z,71.08
2018-01-26T02:52:13.111Z,71.21
2018-01-26T02:54:44.258Z,71.18
2018-01-26T02:57:15.328Z,71.07
2018-01-26T02:59:46.440Z,70.97
2018-01-26T03:02:17.529Z,71.11
2018-01-26T03:04:48.626Z,71.18
2018-01-26T03:07:25.777Z,71.16
2018-01-26T03:09:57.101Z,70.88
2018-01-26T03:12:29.022Z,70.95
2018-01-26T03:15:00.096Z,70.70
2018-01-26T03:17:31.188Z,70.53
2018-01-26T03:20:02.278Z,70.37
2018-01-26T03:22:33.522Z,70.44
2018-01-26T03:25:04.614Z,70.81
2018-01-26T03:27:36.471Z,71.02
2018-01-26T03:30:07.572Z,71.03
2018-01-26T03:32:38.697Z,71.31
2018-01-26T03:35:09.749Z,71.37
2018-01-26T03:37:40.843Z,71.44
2018-01-26T03:40:11.962Z,71.56
2018-01-26T03:42:43.708Z,71.74
2018-01-26T03:45:14.841Z,71.95
2018-01-26T03:47:45.930Z,72.24
2018-01-26T03:50:17.128Z,72.33
2018-01-26T03:52:48.175Z,72.50
2018-01-26T03:55:19.349Z,72.69
2018-01-26T03:57:50.429Z,72.82
2018-01-26T04:00:21.549Z,72.83
2018-01-26T04:02:52.602Z,72.92
2018-01-26T04:05:23.741Z,72.77
2018-01-26T04:07:54.875Z,72.93
2018-01-26T04:10:26.058Z,73.04
2018-01-26T04:12:57.157Z,73.07
2018-01-26T04:15:28.294Z,73.36
2018-01-26T04:17:59.441Z,73.58
2018-01-26T04:20:30.504Z,73.73
2018-01-26T04:23:01.650Z,73.96
2018-01-26T04:25:32.700Z,74.05
2018-01-26T04:28:03.780Z,74.55
2018-01-26T04:30:34.874Z,74.89
2018-01-26T04:33:06.090Z,74.77
2018-01-26T04:35:37.173Z,74.80
2018-01-26T04:38:08.312Z,74.78
2018-01-26T04:40:39.349Z,74.75
2018-01-26T04:43:10.485Z,74.72
2018-01-26T04:45:41.578Z,74.89
2018-01-26T04:48:12.678Z,74.74
2018-01-26T04:50:43.877Z,74.86
2018-01-26T04:53:14.968Z,74.57
2018-01-26T04:55:46.127Z,74.37
2018-01-26T04:58:17.239Z,74.12
2018-01-26T05:00:48.297Z,73.93
2018-01-26T05:03:19.382Z,73.95
2018-01-26T05:05:50.458Z,74.04
2018-01-26T05:08:21.931Z,73.88
2018-01-26T05:10:53.184Z,73.81
2018-01-26T05:13:24.239Z,74.28
2018-01-26T05:15:55.265Z,74.58
2018-01-26T05:18:26.334Z,74.64
2018-01-26T05:20:57.444Z,74.88
2018-01-26T05:23:28.525Z,75.11
2018-01-26T05:25:59.857Z,75.02
2018-01-26T05:28:30.936Z,75.00
2018-01-26T05:31:02.023Z,75.27
2018-01-26T05:33:33.146Z,75.24
2018-01-26T05:36:04.257Z,75.35
2018-01-26T05:38:35.358Z,75.59
2018-01-26T05:41:06.405Z,75.28
2018-01-26T05:43:37.466Z,75.13
2018-01-26T05:46:08.569Z,75.32
2018-01-26T05:48:40.258Z,75.35
2018-01-26T05:51:11.340Z,75.56
2018-01-26T05:53:42.421Z,75.24
2018-01-26T05:56:14.431Z,75.05
2018-01-26T05:58:45.498Z,74.98
2018-01-26T06:01:16.637Z,75.18
2018-01-26T06:03:47.688Z,75.26
2018-01-26T06:06:19.413Z,75.15
2018-01-26T06:08:50.501Z,75.25
2018-01-26T06:11:21.568Z,75.28
2018-01-26T06:13:52.628Z,75.19
2018-01-26T06:16:23.747Z,74.87
2018-01-26T06:18:54.839Z,74.58
2018-01-26T06:21:25.944Z,74.36
2018-01-26T06:23:56.996Z,74.17
2018-01-26T06:26:28.095Z,74.39
2018-01-26T06:28:59.152Z,74.20
2018-01-26T06:31:30.277Z,74.12
2018-01-26T06:34:01.333Z,74.16
2018-01-26T06:36:32.468Z,73.95
2018-01-26T06:39:03.676Z,73.60
2018-01-26T06:41:34.760Z,73.43
2018-01-26T06:44:05.847Z,73.38
2018-01-26T06:46:36.934Z,73.22
2018-01-26T06:49:08.057Z,72.70
2018-01-26T06:51:39.244Z,72.38
2018-01-26T06:54:10.340Z,72.63
2018-01-26T06:56:41.467Z,73.03
2018-01-26T06:59:12.550Z,73.37
2018-01-26T07:01:43.725Z,73.95
2018-01-26T07:04:14.766Z,74.33
2018-01-26T07:06:45.911Z,74.75
2018-01-26T07:09:17.030Z,74.63
2018-01-26T07:11:48.138Z,74.44
2018-01-26T07:14:19.249Z,74.86
2018-01-26T07:16:50.354Z,74.83
2018-01-26T07:19:21.594Z,74.74
2018-01-26T07:21:52.824Z,74.75
2018-01-26T07:24:23.980Z,74.73
2018-01-26T07:26:55.100Z,74.76
2018-01-26T07:29:26.214Z,74.34
2018-01-26T07:31:57.242Z,73.74
2018-01-26T07:34:28.397Z,73.19
2018-01-26T07:36:59.546Z,72.35
2018-01-26T07:39:30.700Z,71.68
2018-01-26T07:42:01.772Z,71.15
2018-01-26T07:44:32.860Z,71.08
2018-01-26T07:47:03.934Z,71.17
2018-01-26T07:49:35.137Z,71.31
2018-01-26T07:52:06.183Z,71.11
2018-01-26T07:54:37.349Z,70.62
2018-01-26T07:57:08.412Z,70.36
2018-01-26T07:59:39.581Z,70.78
2018-01-26T08:02:11.025Z,70.69
2018-01-26T08:04:42.163Z,70.24
2018-01-26T08:07:13.272Z,70.01
2018-01-26T08:09:44.440Z,68.66
2018-01-26T08:12:15.533Z,67.97
2018-01-26T08:14:46.629Z,67.85
2018-01-26T08:17:17.733Z,68.12
2018-01-26T08:19:48.834Z,67.75
2018-01-26T08:22:21.474Z,67.58
2018-01-26T08:24:52.587Z,67.16
2018-01-26T08:27:23.689Z,66.36
2018-01-26T08:29:54.804Z,66.53
2018-01-26T08:32:25.949Z,65.64
2018-01-26T08:34:57.076Z,65.54
2018-01-26T08:37:28.232Z,65.99
2018-01-26T08:39:59.359Z,65.29
2018-01-26T08:42:30.433Z,64.57
2018-01-26T08:45:01.506Z,64.08
2018-01-26T08:47:32.587Z,63.80
2018-01-26T08:50:03.764Z,64.06
2018-01-26T08:52:34.838Z,63.53
2018-01-26T08:55:08.981Z,64.18
2018-01-26T08:57:40.088Z,64.69
2018-01-26T09:00:11.320Z,64.52
2018-01-26T09:02:42.420Z,64.04
2018-01-26T09:05:13.517Z,64.48
2018-01-26T09:07:44.618Z,65.08
2018-01-26T09:10:15.790Z,65.83
2018-01-26T09:12:46.868Z,65.56
2018-01-26T09:15:18.211Z,64.29
2018-01-26T09:17:49.276Z,63.12
2018-01-26T09:20:20.345Z,61.98
2018-01-26T09:22:51.470Z,61.93
2018-01-26T09:25:22.662Z,62.50
2018-01-26T09:27:53.789Z,63.28
2018-01-26T09:30:24.922Z,62.71
2018-01-26T09:32:56.032Z,61.01
2018-01-26T09:35:27.181Z,60.32
2018-01-26T09:37:58.302Z,60.21
2018-01-26T09:40:29.463Z,60.13
2018-01-26T09:43:00.594Z,59.44
2018-01-26T09:45:31.737Z,59.04
2018-01-26T09:48:02.890Z,58.49
2018-01-26T09:50:34.090Z,57.90
2018-01-26T09:53:05.159Z,58.04
2018-01-26T09:55:36.341Z,58.00
2018-01-26T09:58:07.444Z,57.81
2018-01-26T10:00:39.147Z,57.57
2018-01-26T10:03:10.194Z,57.92
2018-01-26T10:05:41.344Z,57.96
2018-01-26T10:08:12.440Z,57.49
2018-01-26T10:10:43.533Z,58.34
2018-01-26T10:13:14.651Z,59.06
2018-01-26T10:15:45.777Z,59.04
2018-01-26T10:18:16.881Z,58.64
2018-01-26T10:20:48.008Z,58.89
2018-01-26T10:23:19.098Z,58.91
2018-01-26T10:25:50.176Z,58.53
2018-01-26T10:28:21.267Z,57.84
2018-01-26T10:30:52.402Z,57.28
2018-01-26T10:33:23.656Z,56.79
2018-01-26T10:35:54.766Z,56.32
2018-01-26T10:38:25.791Z,55.52
2018-01-26T10:40:56.933Z,55.22
2018-01-26T10:43:28.082Z,54.99
2018-01-26T10:45:59.225Z,54.97
2018-01-26T10:48:30.278Z,54.74
2018-01-26T10:51:01.381Z,53.08
2018-01-26T10:53:32.466Z,51.60
2018-01-26T10:56:03.621Z,50.09
2018-01-26T10:58:34.710Z,47.69
2018-01-26T11:01:05.741Z,46.06
2018-01-26T11:03:36.850Z,44.10
2018-01-26T11:06:07.995Z,42.57
2018-01-26T11:08:39.049Z,40.47
2018-01-26T11:11:10.209Z,40.77
2018-01-26T11:13:41.255Z,41.99
2018-01-26T11:16:12.393Z,42.95
2018-01-26T11:18:43.476Z,44.24
2018-01-26T11:21:14.637Z,44.39
2018-01-26T11:23:46.207Z,45.07
2018-01-26T11:26:17.394Z,45.11
2018-01-26T11:28:48.430Z,44.63
2018-01-26T11:31:19.606Z,44.88
2018-01-26T11:33:50.795Z,43.60
2018-01-26T11:36:21.849Z,42.38
2018-01-26T11:38:52.992Z,42.31
2018-01-26T11:41:24.146Z,42.74
2018-01-26T11:43:55.244Z,43.46
2018-01-26T11:46:26.267Z,44.35
2018-01-26T11:48:57.461Z,45.28
2018-01-26T11:51:28.486Z,45.60
2018-01-26T11:53:59.592Z,44.97
2018-01-26T11:56:30.644Z,45.68
2018-01-26T11:59:01.735Z,45.99
2018-01-26T12:01:32.796Z,45.76
2018-01-26T12:04:04.192Z,45.16
2018-01-26T12:06:35.312Z,45.45
2018-01-26T12:09:06.442Z,45.59
2018-01-26T12:11:37.524Z,45.22
2018-01-26T12:14:08.625Z,44.77
2018-01-26T12:16:39.696Z,44.88
2018-01-26T12:19:10.836Z,44.85
2018-01-26T12:21:42.110Z,44.36
2018-01-26T12:24:13.246Z,43.87
2018-01-26T12:26:44.286Z,43.44
2018-01-26T12:29:15.478Z,43.90
2018-01-26T12:31:46.557Z,43.70
2018-01-26T12:34:17.670Z,43.47
2018-01-26T12:36:48.795Z,43.62
2018-01-26T12:39:19.913Z,44.49
2018-01-26T12:41:51.091Z,45.31
2018-01-26T12:44:22.171Z,46.17
2018-01-26T12:46:53.289Z,46.44
2018-01-26T12:49:24.372Z,46.88
2018-01-26T12:51:55.516Z,47.85
2018-01-26T12:54:26.589Z,48.23
2018-01-26T12:56:57.644Z,48.14
2018-01-26T12:59:28.782Z,47.51
2018-01-26T13:01:59.854Z,47.03
2018-01-26T13:04:31.556Z,48.12
2018-01-26T13:07:03.381Z,48.59
2018-01-26T13:09:34.452Z,49.59
2018-01-26T13:12:05.966Z,49.69
2018-01-26T13:14:37.067Z,50.34
2018-01-26T13:17:08.164Z,51.07
2018-01-26T13:19:39.307Z,51.95
2018-01-26T13:22:10.484Z,52.46
2018-01-26T13:24:41.596Z,53.35
2018-01-26T13:27:12.667Z,53.59
2018-01-26T13:29:43.844Z,53.42
2018-01-26T13:32:14.885Z,53.20
2018-01-26T13:34:46.087Z,52.43
2018-01-26T13:37:17.134Z,51.04
2018-01-26T13:39:48.303Z,49.52
2018-01-26T13:42:19.459Z,48.89
2018-01-26T13:44:50.534Z,48.35
2018-01-26T13:47:21.642Z,48.38
2018-01-26T13:49:52.690Z,48.58
2018-01-26T13:52:23.821Z,49.43
2018-01-26T13:54:54.889Z,50.23
2018-01-26T13:57:26.061Z,50.90
2018-01-26T13:59:57.152Z,51.54
2018-01-26T14:02:28.305Z,51.90
2018-01-26T14:04:59.452Z,51.81
2018-01-26T14:07:31.149Z,51.61
2018-01-26T14:10:02.423Z,51.38
2018-01-26T14:12:33.454Z,51.24
2018-01-26T14:15:05.294Z,51.38
2018-01-26T14:17:36.404Z,51.85
2018-01-26T14:20:07.564Z,51.97
2018-01-26T14:22:38.617Z,52.16
2018-01-26T14:25:09.750Z,52.87
2018-01-26T14:27:40.841Z,53.76
2018-01-26T14:30:12.112Z,53.83
2018-01-26T14:32:43.201Z,54.01
2018-01-26T14:35:14.296Z,53.80
2018-01-26T14:37:45.365Z,53.70
2018-01-26T14:40:16.525Z,53.65
2018-01-26T14:42:47.626Z,53.73
2018-01-26T14:45:18.792Z,54.18
2018-01-26T14:47:49.884Z,54.14
2018-01-26T14:50:20.997Z,54.31
2018-01-26T14:52:52.132Z,54.59
2018-01-26T14:55:23.288Z,54.55
2018-01-26T14:57:54.385Z,54.39
2018-01-26T15:00:25.508Z,54.28
2018-01-26T15:02:56.593Z,54.13
2018-01-26T15:05:27.754Z,53.95
2018-01-26T15:07:58.851Z,53.78
2018-01-26T15:10:29.899Z,54.03
2018-01-26T15:13:01.219Z,54.47
2018-01-26T15:15:32.287Z,54.76
2018-01-26T15:18:03.457Z,55.09
2018-01-26T15:20:34.577Z,54.76
2018-01-26T15:23:05.845Z,54.78
2018-01-26T15:25:37.056Z,55.19
2018-01-26T15:28:08.272Z,55.17
2018-01-26T15:30:39.395Z,55.19
2018-01-26T15:33:10.450Z,55.08
2018-01-26T15:35:41.611Z,55.28
2018-01-26T15:38:12.728Z,55.65
2018-01-26T15:40:43.869Z,56.07
2018-01-26T15:43:16.203Z,57.12
2018-01-26T15:45:47.351Z,57.02
2018-01-26T15:48:18.468Z,57.10
2018-01-26T15:50:49.562Z,57.18
2018-01-26T15:53:20.655Z,57.34
2018-01-26T15:55:51.819Z,57.42
2018-01-26T15:58:22.908Z,57.35
2018-01-26T16:00:54.791Z,57.60
2018-01-26T16:03:25.843Z,57.67
2018-01-26T16:05:57.006Z,57.75
2018-01-26T16:08:28.131Z,57.79
2018-01-26T16:10:59.274Z,57.53
2018-01-26T16:13:30.378Z,57.70
2018-01-26T16:16:03.537Z,57.97
2018-01-26T16:18:34.612Z,58.95
2018-01-26T16:21:05.744Z,58.58
2018-01-26T16:23:36.917Z,58.33
2018-01-26T16:26:08.257Z,58.17
2018-01-26T16:28:39.367Z,58.01
2018-01-26T16:31:10.501Z,58.32
2018-01-26T16:33:41.568Z,58.81
2018-01-26T16:36:12.745Z,59.13
2018-01-26T16:38:43.808Z,59.33
2018-01-26T16:41:14.958Z,59.14
2018-01-26T16:43:46.033Z,59.00
2018-01-26T16:46:17.191Z,58.81
2018-01-26T16:48:48.287Z,59.03
2018-01-26T16:51:19.560Z,59.18
2018-01-26T16:53:50.631Z,59.26
2018-01-26T16:56:21.757Z,59.29
2018-01-26T16:58:52.847Z,59.39
2018-01-26T17:01:23.952Z,59.43
2018-01-26T17:03:55.024Z,59.38
2018-01-26T17:06:26.126Z,59.65
2018-01-26T17:08:57.195Z,60.28
2018-01-26T17:11:28.322Z,60.42
2018-01-26T17:13:59.368Z,60.44
2018-01-26T17:16:30.432Z,60.29
2018-01-26T17:19:01.530Z,60.41
2018-01-26T17:21:32.627Z,60.56
2018-01-26T17:24:03.729Z,60.74
2018-01-26T17:26:34.825Z,60.93
2018-01-26T17:29:05.948Z,61.28
2018-01-26T17:31:37.024Z,61.57
2018-01-26T17:34:08.097Z,62.30
2018-01-26T17:36:40.372Z,62.62
2018-01-26T17:39:11.524Z,63.02
2018-01-26T17:41:42.587Z,63.13
2018-01-26T17:44:13.907Z,63.26
2018-01-26T17:46:45.094Z,63.36
2018-01-26T17:49:16.208Z,63.49
2018-01-26T17:51:47.286Z,63.65
2018-01-26T17:54:18.362Z,63.66
2018-01-26T17:56:50.422Z,63.71
2018-01-26T17:59:21.569Z,63.81
2018-01-26T18:01:52.649Z,63.98
2018-01-26T18:04:23.792Z,64.19
2018-01-26T18:06:54.873Z,64.19
2018-01-26T18:09:25.978Z,64.46
2018-01-26T18:11:57.074Z,64.53
2018-01-26T18:14:28.205Z,64.74
2018-01-26T18:17:00.064Z,64.64
2018-01-26T18:19:31.241Z,64.72
2018-01-26T18:22:02.362Z,64.91
2018-01-26T18:24:33.455Z,65.42
2018-01-26T18:27:04.582Z,65.70
2018-01-26T18:29:35.688Z,65.80
2018-01-26T18:32:07.628Z,65.81
2018-01-26T18:34:38.742Z,65.92
2018-01-26T18:37:09.850Z,66.21
2018-01-26T18:39:41.068Z,66.56
2018-01-26T18:42:12.183Z,66.43
2018-01-26T18:44:43.291Z,66.51
2018-01-26T18:47:15.151Z,66.67
2018-01-26T18:49:46.259Z,66.83
2018-01-26T18:52:17.328Z,66.90
2018-01-26T18:54:48.450Z,66.68
2018-01-26T18:57:19.553Z,67.16
2018-01-26T18:59:50.657Z,67.29
2018-01-26T19:02:21.754Z,67.29
2018-01-26T19:04:52.857Z,67.32
2018-01-26T19:07:23.913Z,67.48
2018-01-26T19:09:55.000Z,67.70
2018-01-26T19:12:26.069Z,67.62
2018-01-26T19:14:57.334Z,67.87
2018-01-26T19:20:01.206Z,68.10
2018-01-26T19:22:32.285Z,68.26
2018-01-26T19:25:03.408Z,68.15
2018-01-26T19:27:34.521Z,68.08
2018-01-26T19:30:05.643Z,68.02
2018-01-26T19:32:36.742Z,68.12
2018-01-26T19:35:07.840Z,68.22
2018-01-26T19:37:38.936Z,68.01
2018-01-26T19:40:10.039Z,68.11
2018-01-26T19:42:41.103Z,68.45
2018-01-26T19:45:12.162Z,68.62
2018-01-26T19:47:43.230Z,68.90
2018-01-26T19:50:14.289Z,68.71
2018-01-26T19:52:45.967Z,68.72
2018-01-26T19:55:17.068Z,68.65
2018-01-26T19:57:48.159Z,68.69
2018-01-26T20:00:19.297Z,68.62
2018-01-26T20:02:50.417Z,68.50
2018-01-26T20:05:40.238Z,68.81
2018-01-26T20:08:26.610Z,69.01
2018-01-26T20:10:57.694Z,68.84
2018-01-26T20:13:28.813Z,68.51
2018-01-26T20:15:59.891Z,68.04
2018-01-26T20:18:30.995Z,67.82
2018-01-26T20:21:02.078Z,67.69
2018-01-26T20:23:33.176Z,68.21
2018-01-26T20:26:04.321Z,68.54
2018-01-26T20:28:35.385Z,68.51
2018-01-26T20:31:06.469Z,68.41
2018-01-26T20:33:37.594Z,68.32
2018-01-26T20:36:08.703Z,68.20
2018-01-26T20:38:40.387Z,68.13
2018-01-26T20:41:11.438Z,68.40
2018-01-26T20:43:42.539Z,68.40
2018-01-26T20:46:16.286Z,68.24
2018-01-26T20:48:47.420Z,68.22
2018-01-26T20:51:18.523Z,68.26
2018-01-26T20:53:49.593Z,68.46
2018-01-26T20:56:20.713Z,68.51
2018-01-26T20:58:51.758Z,68.37
2018-01-26T21:01:22.851Z,68.37
2018-01-26T21:03:53.890Z,68.27
2018-01-26T21:06:24.964Z,68.06
2018-01-26T21:08:56.041Z,67.91
2018-01-26T21:11:27.166Z,68.07
2018-01-26T21:13:58.220Z,68.21
2018-01-26T21:16:29.321Z,68.34
2018-01-26T21:19:00.412Z,68.35
2018-01-26T21:21:31.528Z,68.35
2018-01-26T21:24:02.634Z,68.53
2018-01-26T21:26:40.722Z,68.93
2018-01-26T21:29:11.846Z,69.18
2018-01-26T21:31:42.929Z,69.28
2018-01-26T21:34:14.062Z,69.55
2018-01-26T21:36:45.127Z,69.79
2018-01-26T21:39:16.184Z,70.00
2018-01-26T21:41:48.192Z,70.26
2018-01-26T21:44:19.268Z,70.26
2018-01-26T21:46:50.394Z,70.24
2018-01-26T21:49:21.449Z,70.12
2018-01-26T21:51:52.560Z,70.19
2018-01-26T21:54:23.651Z,70.10
2018-01-26T21:56:54.835Z,70.11
2018-01-26T21:59:25.899Z,70.23
2018-01-26T22:01:57.046Z,70.49
2018-01-26T22:04:34.052Z,70.87
2018-01-26T22:07:11.273Z,71.14
2018-01-26T22:09:42.346Z,71.26
2018-01-26T22:12:13.412Z,71.26
2018-01-26T22:14:44.568Z,71.09
2018-01-26T22:17:15.661Z,70.59
2018-01-26T22:19:46.761Z,70.26
2018-01-26T22:22:17.977Z,70.47
2018-01-26T22:24:49.034Z,70.21
2018-01-26T22:27:20.142Z,70.27
2018-01-26T22:29:51.215Z,70.16
2018-01-26T22:32:22.285Z,70.19
2018-01-26T22:34:53.347Z,70.23
2018-01-26T22:37:24.431Z,70.27
2018-01-26T22:39:55.516Z,70.82
2018-01-26T22:42:26.579Z,71.02
2018-01-26T22:44:57.647Z,70.89
2018-01-26T22:47:28.729Z,71.03
2018-01-26T22:49:59.814Z,71.40
2018-01-26T22:52:30.919Z,71.76
2018-01-26T22:55:01.986Z,71.28
2018-01-26T22:57:33.125Z,70.96
2018-01-26T23:00:04.234Z,70.85
2018-01-26T23:02:35.299Z,70.94
2018-01-26T23:05:06.462Z,71.10
2018-01-26T23:07:37.602Z,71.06
2018-01-26T23:10:08.711Z,71.04
2018-01-26T23:12:39.743Z,70.91
2018-01-26T23:15:10.789Z,70.87
2018-01-26T23:17:41.864Z,71.14
2018-01-26T23:20:12.959Z,72.21
2018-01-26T23:22:44.093Z,72.87
2018-01-26T23:25:15.122Z,73.37
2018-01-26T23:27:46.177Z,73.41
2018-01-26T23:30:17.227Z,73.15
2018-01-26T23:32:48.341Z,72.63
2018-01-26T23:35:19.400Z,72.23
2018-01-26T23:37:50.480Z,72.04
2018-01-26T23:40:21.586Z,71.74
2018-01-26T23:42:52.704Z,71.43
2018-01-26T23:45:23.785Z,71.03
2018-01-26T23:47:54.872Z,70.78
2018-01-26T23:50:25.919Z,70.55
2018-01-26T23:52:57.008Z,70.56
2018-01-26T23:55:28.058Z,70.40
2018-01-26T23:58:00.294Z,70.31
